Time;durP1;ratioP1;P1;durP2;ratioP2;P2;SDS_P1;SDS_P2;PMS_P1;PMS_P2;Temp;Humidity;BMP_temperature;BMP_pressure;BME280_temperature;BME280_humidity;BME280_pressure;Samples;Min_cycle;Max_cycle;Signal;HPM_P1;HPM_P2
2021/12/01 00:01:35;;;;;;;24.00;10.60;;;;;;;8.38;100.00;100085.91;5124182;28;20020;-71
2021/12/01 00:04:01;;;;;;;22.88;10.15;;;;;;;8.37;100.00;100073.63;5122403;28;20035;-70
2021/12/01 00:06:27;;;;;;;23.05;10.13;;;;;;;8.40;100.00;100071.88;5103736;28;20101;-70
2021/12/01 00:08:53;;;;;;;22.63;9.60;;;;;;;8.39;100.00;100057.81;5123413;28;20478;-71
2021/12/01 00:11:18;;;;;;;23.27;10.32;;;;;;;8.37;100.00;100049.03;5121523;28;20039;-72
2021/12/01 00:13:43;;;;;;;24.55;10.95;;;;;;;8.32;100.00;100037.63;5106006;28;20478;-71
2021/12/01 00:16:09;;;;;;;24.17;10.90;;;;;;;8.37;100.00;100030.59;5120833;28;20044;-73
2021/12/01 00:18:35;;;;;;;22.67;10.45;;;;;;;8.34;100.00;100034.13;5123571;28;20563;-72
2021/12/01 00:21:00;;;;;;;21.73;8.48;;;;;;;8.39;100.00;100039.38;5125161;27;20439;-73
2021/12/01 00:23:27;;;;;;;22.35;9.45;;;;;;;8.40;100.00;100013.91;5126406;27;20047;-72
2021/12/01 00:25:53;;;;;;;22.50;9.57;;;;;;;8.36;100.00;100003.38;5127161;27;20202;-70
2021/12/01 00:28:19;;;;;;;22.17;9.98;;;;;;;8.34;100.00;99977.94;5125270;27;20023;-73
2021/12/01 00:30:45;;;;;;;21.13;9.07;;;;;;;8.38;100.00;99982.31;5128134;27;20031;-71
2021/12/01 00:33:12;;;;;;;21.60;8.93;;;;;;;8.36;100.00;99974.41;5124442;27;20539;-71
2021/12/01 00:35:38;;;;;;;22.15;9.00;;;;;;;8.31;100.00;99944.56;5127975;27;20027;-74
2021/12/01 00:38:04;;;;;;;21.35;8.60;;;;;;;8.33;100.00;99950.72;5125180;27;20389;-71
2021/12/01 00:40:31;;;;;;;21.27;8.43;;;;;;;8.31;100.00;99957.72;5126430;27;20027;-71
2021/12/01 00:42:56;;;;;;;21.30;8.80;;;;;;;8.32;100.00;99940.19;5126627;27;20031;-71
2021/12/01 00:45:23;;;;;;;21.13;8.38;;;;;;;8.33;100.00;99942.81;5125605;27;20386;-71
2021/12/01 00:47:50;;;;;;;21.58;8.63;;;;;;;8.32;100.00;99933.16;5127297;27;20031;-71
2021/12/01 00:50:29;;;;;;;22.10;8.90;;;;;;;8.36;100.00;99940.19;5124443;27;20024;-71
2021/12/01 00:52:56;;;;;;;21.45;8.85;;;;;;;8.30;100.00;99924.41;5126698;27;20023;-70
2021/12/01 00:55:22;;;;;;;22.17;8.80;;;;;;;8.27;100.00;99957.75;5125248;27;20023;-71
2021/12/01 00:57:50;;;;;;;22.65;8.95;;;;;;;8.26;100.00;99935.81;5127110;27;20027;-71
2021/12/01 01:00:17;;;;;;;21.60;8.57;;;;;;;8.26;100.00;99916.50;5124187;27;20023;-71
2021/12/01 01:02:42;;;;;;;22.23;8.73;;;;;;;8.26;100.00;99927.91;5127359;27;20482;-71
2021/12/01 01:05:09;;;;;;;21.45;8.75;;;;;;;8.25;100.00;99896.31;5124134;27;20019;-71
2021/12/01 01:07:34;;;;;;;24.02;9.40;;;;;;;8.16;100.00;99910.38;5126733;27;20356;-71
2021/12/01 01:10:06;;;;;;;22.73;9.18;;;;;;;8.15;100.00;99917.38;5125216;27;20033;-71
2021/12/01 01:18:07;;;;;;;23.10;10.30;;;;;;;8.13;100.00;99874.38;5124930;27;20124;-70
2021/12/01 01:20:34;;;;;;;24.38;10.48;;;;;;;8.12;100.00;99877.88;5126330;27;20019;-70
2021/12/01 01:23:00;;;;;;;24.85;11.65;;;;;;;8.12;100.00;99883.16;5125053;27;20121;-71
2021/12/01 01:25:25;;;;;;;24.80;11.90;;;;;;;8.11;100.00;99883.16;5124942;27;20415;-71
2021/12/01 01:27:51;;;;;;;26.60;12.73;;;;;;;8.07;100.00;99862.97;5126161;27;20027;-71
2021/12/01 01:30:17;;;;;;;26.80;13.25;;;;;;;8.02;100.00;99866.50;5123475;27;20028;-71
2021/12/01 01:32:42;;;;;;;26.40;12.95;;;;;;;8.01;100.00;99835.78;5126423;27;20019;-71
2021/12/01 01:35:08;;;;;;;26.70;13.60;;;;;;;7.96;100.00;99857.72;5123756;27;20041;-71
2021/12/01 01:37:33;;;;;;;26.55;13.13;;;;;;;7.96;100.00;99863.84;5126063;27;20024;-71
2021/12/01 01:39:58;;;;;;;26.83;14.00;;;;;;;7.91;100.00;99847.22;5124954;27;20030;-71
2021/12/01 01:42:24;;;;;;;26.30;13.30;;;;;;;7.94;100.00;99851.59;5124371;27;20459;-71
2021/12/01 01:44:49;;;;;;;26.30;12.40;;;;;;;7.94;100.00;99841.06;5126200;27;20059;-71
2021/12/01 01:47:14;;;;;;;26.42;15.10;;;;;;;7.92;100.00;99827.91;5123289;27;20019;-71
2021/12/01 01:52:08;;;;;;;26.98;13.70;;;;;;;7.84;100.00;99834.94;5123517;27;20024;-71
2021/12/01 01:54:34;;;;;;;25.95;12.77;;;;;;;7.85;100.00;99840.19;5125616;27;20067;-71
2021/12/01 01:56:59;;;;;;;26.67;13.75;;;;;;;7.85;100.00;99818.28;5124648;27;20374;-71
2021/12/01 01:59:24;;;;;;;26.67;13.63;;;;;;;7.78;100.00;99820.03;5124212;27;20381;-71
2021/12/01 02:02:00;;;;;;;24.88;11.77;;;;;;;7.78;100.00;99814.75;5125969;27;20494;-71
2021/12/01 02:04:27;;;;;;;24.98;13.20;;;;;;;7.79;100.00;99799.84;5124337;27;20031;-71
2021/12/01 02:06:53;;;;;;;25.13;12.75;;;;;;;7.77;100.00;99801.59;5125122;27;20492;-71
2021/12/01 02:09:22;;;;;;;24.35;11.27;;;;;;;7.81;100.00;99780.53;5122842;27;20035;-71
2021/12/01 02:11:48;;;;;;;23.60;11.10;;;;;;;7.75;100.00;99774.44;5126220;27;20104;-71
2021/12/01 02:14:16;;;;;;;21.45;10.45;;;;;;;7.72;100.00;99770.03;5122410;27;20027;-71
2021/12/01 02:16:41;;;;;;;23.02;10.82;;;;;;;7.73;100.00;99760.38;5118136;27;20126;-72
2021/12/01 02:19:07;;;;;;;22.17;10.32;;;;;;;7.73;100.00;99784.94;5125584;27;20102;-74
2021/12/01 02:21:34;;;;;;;23.25;10.38;;;;;;;7.66;100.00;99752.50;5123573;27;20028;-72
2021/12/01 02:24:05;;;;;;;22.10;9.77;;;;;;;7.63;100.00;99736.72;5124220;27;20444;-74
2021/12/01 02:26:34;;;;;;;21.77;10.30;;;;;;;7.63;100.00;99744.63;5123857;27;20026;-74
2021/12/01 02:29:04;;;;;;;21.60;9.43;;;;;;;7.61;100.00;99727.09;5124329;27;20063;-74
2021/12/01 02:31:33;;;;;;;21.10;8.68;;;;;;;7.58;100.00;99734.97;5123908;27;20023;-74
2021/12/01 02:34:00;;;;;;;21.35;9.10;;;;;;;7.59;100.00;99711.31;5124048;27;20024;-73
2021/12/01 02:36:25;;;;;;;20.00;8.57;;;;;;;7.59;100.00;99739.38;5124273;27;20037;-71
2021/12/01 02:38:51;;;;;;;20.63;8.73;;;;;;;7.61;100.00;99712.16;5122705;27;20015;-72
2021/12/01 02:41:24;;;;;;;20.35;8.85;;;;;;;7.54;100.00;99685.91;5125493;27;20023;-74
2021/12/01 02:43:50;;;;;;;19.15;7.38;;;;;;;7.61;100.00;99695.53;5121779;27;20382;-71
2021/12/01 02:46:15;;;;;;;20.58;8.30;;;;;;;7.47;100.00;99682.38;5125511;27;20422;-71
2021/12/01 02:48:45;;;;;;;19.95;8.43;;;;;;;7.43;100.00;99699.06;5122395;27;20027;-71
2021/12/01 02:51:11;;;;;;;21.50;8.52;;;;;;;7.41;100.00;99682.41;5107151;27;20027;-73
2021/12/01 02:53:38;;;;;;;20.17;7.65;;;;;;;7.41;100.00;99671.88;5122442;27;20098;-71
2021/12/01 02:56:05;;;;;;;19.77;7.05;;;;;;;7.40;100.00;99646.50;5124324;27;20106;-73
2021/12/01 02:58:32;;;;;;;21.73;8.85;;;;;;;7.43;100.00;99670.16;5123487;27;20027;-73
2021/12/01 03:01:00;;;;;;;21.30;8.75;;;;;;;7.31;100.00;99681.53;5123363;27;20436;-72
2021/12/01 03:03:26;;;;;;;20.83;7.53;;;;;;;7.38;100.00;99670.13;5124168;27;20382;-71
2021/12/01 03:05:51;;;;;;;21.67;9.52;;;;;;;7.31;100.00;99645.63;5122458;27;20026;-72
2021/12/01 03:08:19;;;;;;;21.33;8.60;;;;;;;7.36;100.00;99645.59;5124983;27;20033;-72
2021/12/01 03:10:47;;;;;;;21.85;9.63;;;;;;;7.28;100.00;99632.47;5121484;27;20031;-71
2021/12/01 03:13:14;;;;;;;21.65;9.40;;;;;;;7.28;100.00;99640.38;5117629;27;20039;-71
2021/12/01 03:15:39;;;;;;;22.55;10.30;;;;;;;7.28;100.00;99635.09;5124915;28;20366;-71
2021/12/01 03:18:05;;;;;;;22.38;10.38;;;;;;;7.24;100.00;99622.84;5122201;28;20114;-71
2021/12/01 03:20:30;;;;;;;22.77;10.90;;;;;;;7.25;100.00;99615.81;5123615;28;20028;-71
2021/12/01 03:22:57;;;;;;;21.70;10.45;;;;;;;7.22;100.00;99624.56;5123674;28;20031;-71
2021/12/01 03:25:23;;;;;;;21.63;10.18;;;;;;;7.28;100.00;99606.19;5122062;28;20031;-71
2021/12/01 03:27:49;;;;;;;21.75;9.38;;;;;;;7.27;100.00;99604.44;5124985;28;20043;-71
2021/12/01 03:30:14;;;;;;;22.00;10.52;;;;;;;7.27;100.00;99607.06;5121536;28;20024;-71
2021/12/01 03:32:41;;;;;;;22.02;9.90;;;;;;;7.29;100.00;99612.31;5124827;28;20385;-71
2021/12/01 03:35:12;;;;;;;22.65;10.75;;;;;;;7.22;100.00;99581.66;5122327;28;20042;-71
2021/12/01 03:37:39;;;;;;;21.83;9.90;;;;;;;7.24;100.00;99588.66;5124192;28;20118;-71
2021/12/01 03:40:06;;;;;;;21.50;9.02;;;;;;;7.20;100.00;99559.78;5122163;28;20031;-73
2021/12/01 03:42:31;;;;;;;23.02;10.50;;;;;;;7.24;100.00;99572.03;5123472;28;20028;-73
2021/12/01 03:44:57;;;;;;;21.88;9.80;;;;;;;7.21;100.00;99562.38;5123317;28;20057;-71
2021/12/01 03:47:25;;;;;;;22.42;10.05;;;;;;;7.20;100.00;99559.78;5122054;28;20023;-73
2021/12/01 03:49:50;;;;;;;22.63;10.50;;;;;;;7.08;100.00;99543.13;5124373;28;20023;-74
2021/12/01 03:52:17;;;;;;;22.90;10.57;;;;;;;7.12;100.00;99546.63;5121251;28;20034;-73
2021/12/01 03:54:48;;;;;;;23.80;9.98;;;;;;;7.16;100.00;99529.97;5117414;27;20019;-74
2021/12/01 03:57:15;;;;;;;22.98;10.20;;;;;;;7.09;100.00;99517.72;5121589;27;20035;-73
2021/12/01 03:59:41;;;;;;;22.95;10.50;;;;;;;7.08;100.00;99505.50;5128514;27;20027;-72
2021/12/01 04:02:07;;;;;;;24.27;11.65;;;;;;;6.98;100.00;99494.97;5126114;27;20048;-72
2021/12/01 04:04:33;;;;;;;22.65;10.43;;;;;;;7.05;100.00;99484.44;5127483;27;20019;-73
2021/12/01 04:06:58;;;;;;;23.27;10.82;;;;;;;7.03;100.00;99508.09;5126968;27;20359;-74
2021/12/01 04:09:25;;;;;;;22.90;10.85;;;;;;;7.07;100.00;99478.31;5125692;27;20385;-74
2021/12/01 04:11:50;;;;;;;25.08;11.70;;;;;;;7.00;100.00;99471.31;5128462;27;20027;-73
2021/12/01 04:14:16;;;;;;;23.20;11.35;;;;;;;7.06;100.00;99465.19;5124931;27;20023;-72
2021/12/01 04:16:42;;;;;;;23.58;10.63;;;;;;;7.11;100.00;99468.69;5128012;27;20036;-73
2021/12/01 04:19:07;;;;;;;22.40;10.32;;;;;;;6.99;100.00;99459.09;5125680;27;20064;-74
2021/12/01 04:21:32;;;;;;;22.50;10.02;;;;;;;7.03;100.00;99457.31;5126841;27;20023;-71
2021/12/01 04:23:58;;;;;;;22.13;10.05;;;;;;;6.96;100.00;99461.69;5127363;27;20023;-74
2021/12/01 04:26:26;;;;;;;22.45;10.23;;;;;;;6.92;100.00;99452.97;5125267;27;20019;-71
2021/12/01 04:28:53;;;;;;;21.55;9.68;;;;;;;6.88;100.00;99443.34;5127609;27;20415;-71
2021/12/01 04:31:20;;;;;;;20.67;8.85;;;;;;;6.98;100.00;99439.81;5125062;27;20032;-72
2021/12/01 04:33:46;;;;;;;20.88;8.80;;;;;;;6.89;100.00;99438.97;5128231;27;20027;-71
2021/12/01 04:36:12;;;;;;;20.98;8.73;;;;;;;6.85;100.00;99418.84;5124650;27;20024;-71
2021/12/01 04:38:38;;;;;;;20.90;8.23;;;;;;;6.88;100.00;99406.56;5127311;27;20148;-72
2021/12/01 04:41:04;;;;;;;21.15;8.93;;;;;;;6.82;100.00;99403.97;5125434;27;20065;-72
2021/12/01 04:43:30;;;;;;;19.58;7.90;;;;;;;6.96;100.00;99425.81;5126368;27;20024;-72
2021/12/01 04:45:59;;;;;;;19.25;7.30;;;;;;;6.88;100.00;99374.19;5126974;27;20019;-71
2021/12/01 04:48:28;;;;;;;20.40;7.65;;;;;;;6.91;100.00;99393.41;5125297;27;20027;-72
2021/12/01 04:50:54;;;;;;;19.00;6.57;;;;;;;6.91;100.00;99350.50;5126691;27;20470;-71
2021/12/01 04:53:19;;;;;;;19.75;7.20;;;;;;;6.92;100.00;99347.88;5124678;27;20081;-72
2021/12/01 04:55:45;;;;;;;19.45;6.45;;;;;;;6.91;100.00;99377.66;5127976;27;20079;-71
2021/12/01 04:58:11;;;;;;;21.13;7.30;;;;;;;6.89;100.00;99353.16;5124357;27;20076;-71
2021/12/01 05:00:37;;;;;;;20.08;7.82;;;;;;;6.80;100.00;99359.31;5127001;27;20031;-72
2021/12/01 05:03:03;;;;;;;20.73;8.02;;;;;;;6.74;100.00;99353.19;5125469;27;20030;-72
2021/12/01 05:05:29;;;;;;;20.38;8.18;;;;;;;6.75;100.00;99350.56;5125417;27;20054;-72
2021/12/01 05:07:54;;;;;;;20.95;8.20;;;;;;;6.74;100.00;99333.09;5125690;27;20516;-71
2021/12/01 05:10:20;;;;;;;21.48;8.50;;;;;;;6.68;100.00;99324.34;5123947;27;20035;-74
2021/12/01 05:12:45;;;;;;;20.63;7.93;;;;;;;6.62;100.00;99333.13;5127254;27;20059;-73
2021/12/01 05:15:11;;;;;;;19.65;8.02;;;;;;;6.63;100.00;99319.97;5105162;27;20127;-73
2021/12/01 05:17:36;;;;;;;20.45;8.20;;;;;;;6.66;100.00;99313.84;5125940;27;20117;-71
2021/12/01 05:20:04;;;;;;;19.73;7.20;;;;;;;6.70;100.00;99298.94;5125216;27;20114;-71
2021/12/01 05:22:30;;;;;;;19.90;7.15;;;;;;;6.59;100.00;99317.38;5125672;27;20031;-76
2021/12/01 05:24:55;;;;;;;19.40;7.47;;;;;;;6.60;100.00;99309.50;5126208;27;20023;-73
2021/12/01 05:27:21;;;;;;;20.20;7.95;;;;;;;6.55;100.00;99294.63;5123692;27;20386;-72
2021/12/01 05:29:46;;;;;;;19.63;7.78;;;;;;;6.55;100.00;99308.66;5128105;27;20122;-74
2021/12/01 05:32:13;;;;;;;19.10;6.55;;;;;;;6.56;100.00;99305.13;5125199;27;20049;-72
2021/12/01 05:34:38;;;;;;;19.10;6.63;;;;;;;6.62;100.00;99297.22;5127237;27;20024;-73
2021/12/01 05:37:04;;;;;;;19.35;7.15;;;;;;;6.56;100.00;99296.38;5126150;27;20469;-75
2021/12/01 05:39:32;;;;;;;17.70;5.78;;;;;;;6.55;100.00;99324.41;5125824;27;20567;-75
2021/12/01 05:41:58;;;;;;;18.92;6.40;;;;;;;6.53;100.00;99296.41;5126018;27;20106;-73
2021/12/01 05:44:23;;;;;;;18.80;6.57;;;;;;;6.51;100.00;99264.00;5125518;27;20024;-72
2021/12/01 05:46:49;;;;;;;18.17;6.10;;;;;;;6.54;100.00;99272.75;5126646;27;20515;-73
2021/12/01 05:49:15;;;;;;;16.77;5.68;;;;;;;6.54;100.00;99257.00;5123096;27;20489;-75
2021/12/01 05:51:40;;;;;;;17.58;5.40;;;;;;;6.56;100.00;99257.00;5126000;27;20077;-75
2021/12/01 05:54:07;;;;;;;15.80;5.20;;;;;;;6.57;100.00;99275.38;5124413;27;20026;-72
2021/12/01 05:56:33;;;;;;;16.05;5.40;;;;;;;6.57;100.00;99251.75;5125155;27;20176;-75
2021/12/01 05:58:58;;;;;;;15.65;4.93;;;;;;;6.57;100.00;99254.38;5125054;27;20015;-76
2021/12/01 06:01:25;;;;;;;16.83;5.18;;;;;;;6.53;100.00;99243.88;5123562;27;20443;-76
2021/12/01 06:03:50;;;;;;;16.77;5.25;;;;;;;6.53;100.00;99223.75;5126176;27;20105;-77
2021/12/01 06:06:15;;;;;;;16.27;5.60;;;;;;;6.54;100.00;99237.72;5122506;27;20110;-78
2021/12/01 06:08:42;;;;;;;15.57;5.20;;;;;;;6.51;100.00;99224.63;5125739;27;20034;-75
2021/12/01 06:11:08;;;;;;;17.08;5.05;;;;;;;6.54;100.00;99212.38;5123888;27;20111;-73
2021/12/01 06:13:33;;;;;;;17.17;5.35;;;;;;;6.54;100.00;99216.72;5124493;27;20571;-73
2021/12/01 06:15:58;;;;;;;16.25;5.30;;;;;;;6.50;100.00;99208.00;5124474;27;20023;-74
2021/12/01 06:18:24;;;;;;;15.85;5.30;;;;;;;6.52;100.00;99213.25;5123173;27;20026;-75
2021/12/01 06:20:49;;;;;;;17.58;5.90;;;;;;;6.52;100.00;99210.63;5125885;27;20034;-74
2021/12/01 06:23:15;;;;;;;17.00;5.75;;;;;;;6.49;100.00;99201.00;5122628;27;20024;-75
2021/12/01 06:25:41;;;;;;;18.13;6.15;;;;;;;6.51;100.00;99187.88;5125675;27;20031;-75
2021/12/01 06:28:06;;;;;;;17.20;6.05;;;;;;;6.53;100.00;99160.72;5123132;27;20405;-75
2021/12/01 06:30:35;;;;;;;16.52;5.35;;;;;;;6.59;100.00;99175.59;5124169;27;20028;-73
2021/12/01 06:33:01;;;;;;;17.75;6.00;;;;;;;6.58;100.00;99172.09;5124183;27;20046;-74
2021/12/01 06:35:26;;;;;;;17.80;6.18;;;;;;;6.56;100.00;99189.59;5123377;27;20069;-72
2021/12/01 06:37:53;;;;;;;17.48;5.80;;;;;;;6.63;100.00;99178.19;5125130;27;20429;-74
2021/12/01 06:40:19;;;;;;;17.63;6.10;;;;;;;6.59;100.00;99179.06;5119553;27;20031;-79
2021/12/01 06:42:45;;;;;;;17.27;5.97;;;;;;;6.60;100.00;99180.81;5116446;27;20031;-76
2021/12/01 06:45:12;;;;;;;17.80;6.60;;;;;;;6.62;100.00;99157.19;5118250;27;20035;-76
2021/12/01 06:47:39;;;;;;;17.52;6.05;;;;;;;6.62;100.00;99178.19;5120178;27;20027;-76
2021/12/01 06:50:06;;;;;;;17.00;6.07;;;;;;;6.64;100.00;99155.44;5117224;27;20031;-77
2021/12/01 06:52:31;;;;;;;19.17;6.28;;;;;;;6.64;100.00;99147.56;5116345;27;20023;-75
2021/12/01 06:54:58;;;;;;;18.25;6.47;;;;;;;6.60;100.00;99157.19;5117437;27;20020;-77
2021/12/01 06:57:24;;;;;;;18.23;6.80;;;;;;;6.60;100.00;99144.06;5116221;27;20019;-79
2021/12/01 06:59:49;;;;;;;18.27;7.10;;;;;;;6.59;100.00;99152.81;5116360;27;20031;-81
2021/12/01 07:02:16;;;;;;;18.92;7.22;;;;;;;6.68;100.00;99143.13;5119771;27;20035;-77
2021/12/01 07:04:41;;;;;;;19.38;7.25;;;;;;;6.69;100.00;99129.13;5114253;27;20054;-80
2021/12/01 07:07:06;;;;;;;19.67;7.82;;;;;;;6.72;100.00;99135.22;5111418;28;20062;-73
2021/12/01 07:09:32;;;;;;;19.95;7.30;;;;;;;6.75;100.00;99144.84;5115184;27;20027;-76
2021/12/01 07:11:57;;;;;;;19.73;7.70;;;;;;;6.73;100.00;99129.09;5119182;27;20106;-78
2021/12/01 07:14:22;;;;;;;19.50;7.68;;;;;;;6.77;100.00;99132.56;5117324;27;20030;-77
2021/12/01 07:16:48;;;;;;;20.27;7.82;;;;;;;6.80;100.00;99137.78;5114656;27;20039;-78
2021/12/01 07:19:14;;;;;;;21.20;8.32;;;;;;;6.80;100.00;99120.28;5113257;28;20068;-75
2021/12/01 07:21:39;;;;;;;20.58;8.43;;;;;;;6.83;100.00;99124.66;5116293;28;20042;-75
2021/12/01 07:24:06;;;;;;;20.73;9.10;;;;;;;6.86;100.00;99137.75;5113325;28;20059;-75
2021/12/01 07:26:32;;;;;;;20.92;8.27;;;;;;;6.85;100.00;99124.66;5112010;28;20028;-78
2021/12/01 07:28:57;;;;;;;22.27;9.77;;;;;;;6.83;100.00;99119.41;5113825;28;20095;-74
2021/12/01 07:31:23;;;;;;;21.17;9.13;;;;;;;6.85;100.00;99133.38;5122881;27;20039;-80
2021/12/01 07:33:48;;;;;;;22.13;9.40;;;;;;;6.87;100.00;99128.97;5116284;27;20027;-75
2021/12/01 07:36:15;;;;;;;21.45;9.82;;;;;;;6.86;100.00;99122.00;5122286;27;20019;-72
2021/12/01 07:38:41;;;;;;;20.48;8.73;;;;;;;6.91;100.00;99121.97;5119256;27;20028;-75
2021/12/01 07:41:06;;;;;;;22.02;9.63;;;;;;;6.91;100.00;99109.69;5114345;27;20080;-74
2021/12/01 07:43:32;;;;;;;22.23;10.13;;;;;;;6.93;100.00;99138.56;5119268;27;20497;-79
2021/12/01 07:46:00;;;;;;;23.17;10.43;;;;;;;6.91;100.00;99114.94;5119708;27;20034;-75
2021/12/01 07:48:25;;;;;;;22.45;9.82;;;;;;;6.92;100.00;99115.84;5114577;27;20031;-74
2021/12/01 07:50:51;;;;;;;22.48;9.32;;;;;;;6.95;100.00;99115.81;5117930;27;20020;-75
2021/12/01 07:53:16;;;;;;;22.55;9.20;;;;;;;6.98;100.00;99113.16;5114486;27;20028;-75
2021/12/01 07:55:42;;;;;;;22.25;9.60;;;;;;;7.00;100.00;99092.97;5120217;27;20038;-76
2021/12/01 07:58:07;;;;;;;22.52;9.65;;;;;;;7.02;100.00;99079.81;5120724;27;20024;-76
2021/12/01 08:00:32;;;;;;;21.65;8.98;;;;;;;7.06;100.00;99071.91;5120982;27;20416;-74
2021/12/01 08:02:58;;;;;;;20.95;8.95;;;;;;;7.06;100.00;99087.69;5119695;27;20098;-76
2021/12/01 08:05:23;;;;;;;20.48;8.88;;;;;;;7.07;100.00;99088.53;5117530;27;20084;-75
2021/12/01 08:07:50;;;;;;;21.30;8.45;;;;;;;7.10;100.00;99094.63;5117199;27;20030;-82
2021/12/01 08:10:16;;;;;;;22.48;8.40;;;;;;;7.06;100.00;99107.81;5118445;27;20024;-76
2021/12/01 08:12:41;;;;;;;20.77;8.50;;;;;;;7.06;100.00;99081.53;5117807;27;20019;-77
2021/12/01 08:15:08;;;;;;;21.42;8.93;;;;;;;7.08;100.00;99077.16;5119428;27;20063;-75
2021/12/01 08:17:33;;;;;;;21.08;8.98;;;;;;;7.17;100.00;99073.56;5119442;27;20417;-74
2021/12/01 08:19:58;;;;;;;21.50;8.55;;;;;;;7.12;100.00;99056.09;5119513;27;20024;-77
2021/12/01 08:22:28;;;;;;;22.00;9.10;;;;;;;7.18;100.00;99070.94;5117591;27;20031;-74
2021/12/01 08:24:54;;;;;;;21.83;9.73;;;;;;;7.17;100.00;99066.53;5118161;27;20042;-75
2021/12/01 08:27:21;;;;;;;24.33;10.23;;;;;;;7.15;100.00;99071.81;5115887;27;20024;-78
2021/12/01 08:29:46;;;;;;;23.35;9.93;;;;;;;7.13;100.00;99075.34;5115462;27;20036;-74
2021/12/01 08:32:11;;;;;;;22.77;10.23;;;;;;;7.17;100.00;99063.06;5119755;27;20075;-71
2021/12/01 08:34:37;;;;;;;23.02;10.13;;;;;;;7.17;100.00;99074.44;5116047;27;20059;-71
2021/12/01 08:37:06;;;;;;;22.63;9.82;;;;;;;7.18;100.00;99062.16;5115175;27;20030;-70
2021/12/01 08:39:32;;;;;;;21.58;9.45;;;;;;;7.22;100.00;99056.84;5117119;27;20023;-71
2021/12/01 08:41:57;;;;;;;22.08;9.82;;;;;;;7.23;100.00;99058.59;5116023;27;20543;-70
2021/12/01 08:44:22;;;;;;;21.10;8.88;;;;;;;7.28;100.00;99064.69;5119350;27;20023;-70
2021/12/01 08:46:48;;;;;;;20.25;8.15;;;;;;;7.30;100.00;99041.88;5118059;27;20019;-70
2021/12/01 08:49:13;;;;;;;20.00;7.95;;;;;;;7.41;100.00;99036.50;5118394;27;20039;-70
2021/12/01 08:51:39;;;;;;;19.92;7.50;;;;;;;7.46;100.00;99026.78;5115548;27;20071;-70
2021/12/01 08:54:05;;;;;;;20.70;7.55;;;;;;;7.49;100.00;99039.03;5114212;27;20024;-76
2021/12/01 08:56:31;;;;;;;19.58;7.60;;;;;;;7.54;100.00;99037.22;5120382;27;20027;-73
2021/12/01 08:58:56;;;;;;;19.95;7.53;;;;;;;7.61;100.00;99032.75;5123983;27;20028;-76
2021/12/01 09:01:22;;;;;;;20.13;8.20;;;;;;;7.65;100.00;99037.09;5126041;27;20047;-73
2021/12/01 09:03:47;;;;;;;19.65;7.28;;;;;;;7.67;100.00;99049.34;5125263;27;20122;-79
2021/12/01 09:06:12;;;;;;;18.85;6.38;;;;;;;7.65;100.00;99037.94;5106635;27;20126;-73
2021/12/01 09:08:39;;;;;;;17.95;6.47;;;;;;;7.59;100.00;99038.03;5126578;27;20036;-72
2021/12/01 09:11:06;;;;;;;21.52;6.35;;;;;;;7.55;100.00;99031.06;5123953;27;20030;-76
2021/12/01 09:13:35;;;;;;;19.02;6.13;;;;;;;7.56;100.00;99040.72;5121200;27;20170;-76
2021/12/01 09:16:01;;;;;;;18.48;5.90;;;;;;;7.52;100.00;99039.00;5112350;27;20023;-74
2021/12/01 09:18:27;;;;;;;17.02;5.50;;;;;;;7.53;100.00;99043.38;5115879;27;20054;-75
2021/12/01 09:20:53;;;;;;;16.75;5.68;;;;;;;7.48;100.00;99045.19;5117810;27;20042;-83
2021/12/01 09:23:19;;;;;;;16.30;5.15;;;;;;;7.49;100.00;99057.44;5117884;27;20475;-74
2021/12/01 09:25:46;;;;;;;16.95;5.60;;;;;;;7.52;100.00;99032.88;5120421;27;20393;-72
2021/12/01 09:28:17;;;;;;;17.08;5.70;;;;;;;7.47;100.00;99046.06;5099898;27;20027;-74
2021/12/01 09:30:42;;;;;;;18.70;6.13;;;;;;;7.36;100.00;99053.22;5118448;27;20038;-73
2021/12/01 09:33:08;;;;;;;19.20;6.70;;;;;;;7.29;100.00;99062.91;5116744;27;20118;-73
2021/12/01 09:35:33;;;;;;;18.50;6.40;;;;;;;7.29;100.00;99055.03;5118963;27;20019;-73
2021/12/01 09:37:58;;;;;;;19.13;6.90;;;;;;;7.23;100.00;99063.84;5119580;27;20034;-74
2021/12/01 09:40:24;;;;;;;19.05;6.60;;;;;;;7.20;100.00;99097.19;5133963;27;20003;-74
2021/12/01 09:42:52;;;;;;;21.17;7.90;;;;;;;7.17;100.00;99090.19;5139663;27;20035;-74
2021/12/01 09:45:20;;;;;;;20.58;7.65;;;;;;;7.09;100.00;99073.63;5135712;27;20020;-74
2021/12/01 09:47:47;;;;;;;21.75;6.70;;;;;;;6.99;100.00;99075.50;5136128;27;20027;-73
2021/12/01 09:50:13;;;;;;;20.98;6.38;;;;;;;6.96;100.00;99076.38;5132993;27;20428;-78
2021/12/01 09:52:38;;;;;;;23.23;7.00;;;;;;;6.93;100.00;99091.28;5124326;27;20023;-77
2021/12/01 09:55:06;;;;;;;22.17;7.10;;;;;;;6.94;100.00;99072.88;5122941;27;20039;-76
2021/12/01 09:57:31;;;;;;;22.30;5.60;;;;;;;7.01;100.00;99070.22;5126044;27;20019;-77
2021/12/01 09:59:57;;;;;;;22.45;6.55;;;;;;;7.02;100.00;99095.59;5122809;27;20042;-80
2021/12/01 10:02:25;;;;;;;22.95;6.25;;;;;;;6.95;100.00;99093.03;5125584;27;20054;-79
2021/12/01 10:04:51;;;;;;;20.40;5.38;;;;;;;6.96;100.00;99080.75;5123693;27;20027;-71
2021/12/01 10:07:18;;;;;;;20.40;5.22;;;;;;;7.06;100.00;99084.16;5124815;27;20031;-73
2021/12/01 10:09:46;;;;;;;22.35;6.10;;;;;;;6.93;100.00;99080.78;5124373;27;20114;-72
2021/12/01 10:12:12;;;;;;;21.50;5.47;;;;;;;6.96;100.00;99086.88;5124317;27;20161;-72
2021/12/01 10:14:43;;;;;;;22.05;5.40;;;;;;;6.97;100.00;99083.38;5125153;27;20031;-73
2021/12/01 10:17:08;;;;;;;21.15;4.85;;;;;;;6.97;100.00;99067.63;5123226;27;20039;-72
2021/12/01 10:19:34;;;;;;;22.77;4.97;;;;;;;6.95;100.00;99069.38;5125698;27;20030;-72
2021/12/01 10:21:59;;;;;;;21.80;4.43;;;;;;;6.93;100.00;99073.78;5122487;27;20135;-74
2021/12/01 10:24:27;;;;;;;25.40;4.30;;;;;;;6.95;100.00;99079.03;5125626;27;20023;-70
2021/12/01 10:27:02;;;;;;;23.48;4.05;;;;;;;7.13;100.00;99063.06;5123016;27;20020;-74
2021/12/01 10:29:32;;;;;;;23.40;4.20;;;;;;;7.30;100.00;99069.94;5118405;27;20038;-80
2021/12/01 10:32:06;;;;;;;21.00;3.40;;;;;;;7.29;100.00;99068.19;5118512;27;20016;-79
2021/12/01 10:34:46;;;;;;;19.55;3.60;;;;;;;7.18;100.00;99075.28;5119036;27;20112;-74
2021/12/01 10:37:11;;;;;;;19.35;3.38;;;;;;;7.10;100.00;99094.63;5124480;27;20011;-82
2021/12/01 10:40:00;;;;;;;22.38;3.50;;;;;;;7.24;100.00;99076.13;5123018;27;20034;-76
2021/12/01 10:42:26;;;;;;;18.58;3.17;;;;;;;7.52;100.00;99064.44;5122575;27;20035;-79
2021/12/01 10:45:04;;;;;;;17.88;3.10;;;;;;;7.93;100.00;99071.78;5124822;27;20045;-74
2021/12/01 10:47:42;;;;;;;19.27;3.28;;;;;;;8.47;100.00;99071.06;5100467;28;20055;-79
2021/12/01 10:50:13;;;;;;;16.27;2.70;;;;;;;8.92;100.00;99073.00;5120412;27;20027;-85
2021/12/01 10:52:44;;;;;;;17.98;2.97;;;;;;;9.15;100.00;99066.47;5124492;27;20058;-83
2021/12/01 10:55:15;;;;;;;15.10;2.47;;;;;;;9.47;100.00;99057.09;5123499;27;20023;-85
2021/12/01 10:57:43;;;;;;;17.83;2.72;;;;;;;9.37;100.00;99051.97;5124044;27;20134;-79
2021/12/01 11:00:28;;;;;;;17.25;2.97;;;;;;;8.95;100.00;99053.63;5122802;27;20107;-82
2021/12/01 11:03:04;;;;;;;18.10;2.60;;;;;;;8.64;100.00;99062.06;5116349;27;20023;-71
2021/12/01 11:05:35;;;;;;;18.88;2.90;;;;;;;8.15;100.00;99061.84;5092211;27;20023;-72
2021/12/01 11:08:13;;;;;;;14.45;2.60;;;;;;;7.67;100.00;99053.72;5119055;27;20026;-71
2021/12/01 11:10:40;;;;;;;12.43;2.60;;;;;;;7.33;100.00;99064.63;5118188;27;20060;-70
2021/12/01 11:13:06;;;;;;;15.13;2.75;;;;;;;7.37;100.00;99078.59;5117621;27;20076;-71
2021/12/01 11:15:35;;;;;;;15.32;2.75;;;;;;;7.06;100.00;99081.53;5125071;27;20087;-73
2021/12/01 11:18:02;;;;;;;10.80;2.45;;;;;;;7.07;100.00;99080.66;5122009;27;20051;-71
2021/12/01 11:20:40;;;;;;;15.45;2.60;;;;;;;7.06;100.00;99082.44;5123846;28;20033;-72
2021/12/01 11:23:22;;;;;;;14.65;2.80;;;;;;;7.09;100.00;99076.25;5124177;28;20023;-73
2021/12/01 11:25:52;;;;;;;14.90;2.78;;;;;;;7.17;100.00;99087.56;5118804;28;20042;-72
2021/12/01 11:28:20;;;;;;;18.48;2.72;;;;;;;7.06;100.00;99086.78;5123973;28;20027;-72
2021/12/01 11:30:49;;;;;;;16.00;2.80;;;;;;;7.06;100.00;99087.69;5121345;28;20024;-70